Latest Weather Observations for Moruya Airport

IDN60901

Issued at 7:35 pm EDT Sunday 1 February 2015 (issued every 10 minutes, with the page automatically refreshed every 10 minutes)

About weather observations | Map of Canberra area stations | Latest observations for Canberra area | Other Formats
Station Details ID: 069148 Name: MORUYA AIRPORT AWS Lat: -35.90 Lon: 150.14 Height: 4.0 m
Data from the previous 72 hours. | See also: Recent months for locations in Aust Capital Territory
Date/Time
EDT
Tmp

°C
App
Tmp
°C
Dew
Point
°C
Rel
Hum
%
Delta-T

°C
Wind Press
QNH
hPa
Press
MSL
hPa
Rain
since
9 am
mm
Dir
 
Spd
km/h
Gust
km/h
Spd
kts
Gust
kts
01/07:30pm 19.6 17.9 16.3 81 2.0 S 20 26 11 14 1012.3 1012.2 0.0
01/07:00pm 19.7 17.3 16.5 82 1.9 S 24 35 13 19 1011.8 1011.7 0.0
01/06:30pm 20.0 18.1 16.6 81 2.1 SSE 22 35 12 19 1011.4 1011.3 0.0
01/05:30pm 20.9 19.4 16.7 77 2.5 SSE 20 32 11 17 1010.8 1010.7 0.0
01/05:00pm 21.8 20.2 16.5 72 3.2 SSE 20 28 11 15 1010.7 1010.6 0.0
01/04:30pm 22.6 21.2 17.1 71 3.4 SSE 20 28 11 15 1010.5 1010.4 0.0
01/04:00pm 22.1 22.3 19.3 84 1.8 S 17 24 9 13 1010.4 1010.3 0.0
01/03:30pm 22.0 20.0 16.5 71 3.3 SSE 22 28 12 15 1010.5 1010.4 0.0
01/03:00pm 21.6 19.7 15.7 69 3.5 SE 20 26 11 14 1010.4 1010.3 0.0
01/02:30pm 22.1 20.8 15.7 67 3.8 SE 17 24 9 13 1010.4 1010.3 0.0
01/02:00pm 22.3 20.8 15.4 65 4.1 SE 17 22 9 12 1010.3 1010.2 0.0
01/01:30pm 22.3 21.0 14.7 62 4.5 SE 15 20 8 11 1010.4 1010.3 0.0
01/01:00pm 21.2 19.8 14.4 65 4.0 ESE 15 19 8 10 1010.4 1010.3 0.0
01/12:30pm 22.1 20.9 14.0 60 4.7 ENE 13 17 7 9 1010.5 1010.4 0.0
01/12:00pm 22.9 22.1 15.0 61 4.7 E 13 17 7 9 1010.6 1010.5 0.0
01/11:30am 22.7 21.7 14.5 60 4.8 E 13 17 7 9 1010.6 1010.5 0.0
01/11:00am 22.5 21.8 14.4 60 4.8 E 11 17 6 9 1010.6 1010.5 0.0
01/10:30am 22.6 21.3 14.7 61 4.7 ESE 15 17 8 9 1010.5 1010.4 0.0
01/09:00am 19.4 20.0 15.9 80 2.1 SW 7 11 4 6 1010.0 1009.9 0.0
01/08:30am 18.7 18.5 15.8 83 1.7 SW 11 13 6 7 1009.9 1009.8 0.0
01/08:00am 17.4 18.5 15.6 89 1.1 WSW 4 7 2 4 1009.8 1009.7 0.0
01/07:30am 16.2 18.1 15.7 97 0.3 CALM 0 0 0 0 1009.6 1009.5 0.0
01/07:00am 15.3 15.6 15.1 99 0.1 W 7 7 4 4 1009.4 1009.3 0.0
01/06:30am 15.1 15.0 14.9 99 0.1 WSW 9 11 5 6 1009.4 1009.3 0.0
01/05:30am 15.0 16.6 15.0 100 0.0 CALM 0 0 0 0 1008.7 1008.6 0.0
01/05:00am 15.0 15.5 15.0 100 0.0 SW 6 9 3 5 1008.4 1008.3 0.0
01/04:30am 14.8 15.6 14.8 100 0.0 W 4 7 2 4 1008.4 1008.3 0.0
01/04:00am 14.0 14.1 14.0 100 0.0 W 6 11 3 6 1008.5 1008.4 0.0
01/03:00am 13.6 14.7 13.6 100 0.0 CALM 0 0 0 0 1008.5 1008.4 0.0
01/02:30am 14.1 14.3 14.1 100 0.0 W 6 7 3 4 1008.6 1008.5 0.0
01/02:00am 14.5 15.2 14.5 100 0.0 W 4 7 2 4 1008.7 1008.6 0.0
01/01:30am 14.3 14.9 14.3 100 0.0 WSW 4 9 2 5 1008.7 1008.6 0.0
01/01:00am 14.3 14.3 13.7 96 0.3 SW 6 7 3 4 1008.8 1008.7 0.0
01/12:30am 15.3 15.5 14.2 93 0.6 SW 6 9 3 5 1009.1 1009.0 0.0
 
Date/Time
EDT
Tmp

°C
App
Tmp
°C
Dew
Point
°C
Rel
Hum
%
Delta-T

°C
Wind Press
QNH
hPa
Press
MSL
hPa
Rain
since
9 am
mm
Dir
 
Spd
km/h
Gust
km/h
Spd
kts
Gust
kts
31/11:30pm 16.2 16.8 14.2 88 1.1 W 4 7 2 4 1009.4 1009.3 0.0
31/11:00pm 16.9 16.8 13.8 82 1.8 WSW 7 9 4 5 1009.4 1009.3 0.0
31/10:30pm 17.6 18.4 14.7 83 1.7 SSW 4 9 2 5 1009.4 1009.3 0.0
31/10:00pm 18.2 18.8 15.3 83 1.7 SW 6 9 3 5 1009.2 1009.1 0.0
31/09:30pm 18.8 19.4 15.9 83 1.7 SW 7 11 4 6 1008.9 1008.8 0.0
31/09:00pm 18.5 18.6 15.6 83 1.7 WSW 9 11 5 6 1008.4 1008.3 0.0
31/08:30pm 19.0 19.5 15.5 80 2.1 W 7 9 4 5 1007.9 1007.8 0.0
31/08:00pm 20.7 21.1 14.8 69 3.5 SW 6 7 3 4 1007.5 1007.4 0.0
31/07:30pm 22.1 21.1 14.5 62 4.5 S 13 17 7 9 1007.1 1007.0 0.0
31/07:00pm 22.1 21.7 15.2 65 4.1 S 11 20 6 11 1006.8 1006.7 0.0
31/06:30pm 22.6 22.2 14.2 59 4.9 ESE 9 15 5 8 1006.6 1006.5 0.0
31/06:00pm 23.0 22.6 15.1 61 4.7 ESE 11 13 6 7 1006.5 1006.4 0.0
31/05:30pm 22.7 22.2 14.8 61 4.7 SE 11 15 6 8 1006.4 1006.3 0.0
31/05:00pm 22.3 21.0 14.9 63 4.4 SE 15 20 8 11 1006.4 1006.3 0.0
31/04:30pm 21.9 20.9 14.5 63 4.3 ESE 13 17 7 9 1006.2 1006.1 0.0
31/04:00pm 21.9 20.6 13.8 60 4.7 ESE 13 19 7 10 1006.3 1006.2 0.0
31/03:30pm 22.5 20.9 13.8 58 5.1 E 15 20 8 11 1006.1 1006.0 0.0
31/03:00pm 23.3 21.3 13.8 55 5.6 E 17 20 9 11 1006.1 1006.0 0.0
31/02:30pm 23.1 21.2 14.1 57 5.3 ESE 17 22 9 12 1006.0 1005.9 0.0
31/02:00pm 23.3 21.8 14.3 57 5.3 E 15 20 8 11 1006.1 1006.0 0.0
31/01:30pm 22.9 21.2 13.7 56 5.4 E 15 19 8 10 1006.4 1006.3 0.0
31/01:00pm 22.4 20.5 12.9 55 5.5 ENE 15 17 8 9 1006.5 1006.4 0.0
31/12:30pm 23.5 22.1 13.4 53 5.9 W 13 22 7 12 1006.8 1006.7 0.0
31/12:00pm 23.7 23.2 12.7 50 6.3 NW 7 13 4 7 1007.2 1007.1 0.0
31/11:30am 22.2 21.3 11.3 50 6.1 ENE 7 11 4 6 1007.4 1007.3 0.0
31/11:00am 21.2 21.0 11.8 55 5.3 SSW 4 9 2 5 1007.7 1007.6 0.0
31/10:30am 20.8 20.1 11.4 55 5.2 W 6 7 3 4 1007.8 1007.7 0.0
31/10:00am 20.3 19.8 12.5 61 4.4 WNW 7 13 4 7 1007.6 1007.5 0.0
31/09:30am 19.6 18.5 12.1 62 4.2 W 9 13 5 7 1007.6 1007.5 0.0
31/09:00am 18.8 18.8 12.3 66 3.6 W 4 7 2 4 1007.5 1007.4 0.0
31/08:30am 17.2 17.3 12.7 75 2.5 WSW 4 7 2 4 1007.4 1007.3 0.0
31/08:00am 16.1 17.3 13.9 87 1.2 CALM 0 0 0 0 1007.3 1007.2 0.0
31/07:30am 15.3 16.4 13.5 89 1.0 CALM 0 0 0 0 1007.0 1006.9 0.0
31/07:00am 14.7 15.1 12.4 86 1.3 W 2 7 1 4 1006.8 1006.7 0.0
31/06:30am 14.4 13.8 12.3 87 1.1 W 7 9 4 5 1006.5 1006.4 0.0
31/06:00am 14.9 13.8 10.5 75 2.3 WNW 7 9 4 5 1006.3 1006.2 0.0
31/05:30am 15.0 13.5 10.4 74 2.4 WSW 9 11 5 6 1006.1 1006.0 0.0
31/05:00am 15.4 14.3 10.8 74 2.4 W 7 11 4 6 1005.9 1005.8 0.0
31/04:30am 16.0 14.9 10.5 70 2.9 WSW 7 13 4 7 1006.0 1005.9 0.0
31/04:00am 15.4 14.3 10.8 74 2.4 WSW 7 11 4 6 1006.1 1006.0 0.0
31/03:30am 16.2 14.9 10.1 67 3.2 WSW 7 9 4 5 1006.2 1006.1 0.0
31/03:00am 16.4 14.8 10.3 67 3.2 WSW 9 13 5 7 1006.4 1006.3 0.0
31/02:30am 15.1 15.8 12.2 83 1.6 CALM 0 0 0 0 1006.5 1006.4 0.0
31/02:00am 15.4 15.8 12.5 83 1.6 NW 2 7 1 4 1006.6 1006.5 0.0
31/01:30am 15.7 16.4 12.3 80 1.9 CALM 0 0 0 0 1006.9 1006.8 0.0
31/01:00am 16.6 15.9 11.3 71 2.9 WNW 6 7 3 4 1007.3 1007.2 0.0
31/12:30am 17.7 15.6 9.6 59 4.3 WSW 11 13 6 7 1007.5 1007.4 0.0
31/12:00am 18.1 15.5 9.5 57 4.5 WSW 13 19 7 10 1007.5 1007.4 0.0
 
Date/Time
EDT
Tmp

°C
App
Tmp
°C
Dew
Point
°C
Rel
Hum
%
Delta-T

°C
Wind Press
QNH
hPa
Press
MSL
hPa
Rain
since
9 am
mm
Dir
 
Spd
km/h
Gust
km/h
Spd
kts
Gust
kts
30/11:30pm 18.4 15.8 9.5 56 4.7 WSW 13 20 7 11 1007.7 1007.6 0.0
30/11:00pm 18.2 16.1 9.8 58 4.5 WSW 11 15 6 8 1007.9 1007.8 0.0
30/10:30pm 18.5 16.0 9.8 57 4.6 WSW 13 19 7 10 1007.8 1007.7 0.0
30/10:00pm 18.0 16.1 10.6 62 4.0 WSW 11 17 6 9 1008.0 1007.9 0.0
30/09:30pm 16.8 15.5 11.3 70 3.0 WSW 9 11 5 6 1007.8 1007.7 0.0
30/09:00pm 17.8 16.5 11.1 65 3.6 SSW 9 13 5 7 1007.5 1007.4 0.0
30/08:30pm 19.4 17.2 10.9 58 4.6 SSW 13 19 7 10 1007.1 1007.0 0.0
30/08:00pm 20.5 17.3 11.4 56 5.0 SSW 19 26 10 14 1007.2 1007.1 0.0
30/07:30pm 20.6 18.9 12.3 59 4.7 SSW 13 17 7 9 1006.9 1006.8 0.0
30/07:00pm 20.8 19.2 12.8 60 4.5 SSW 13 17 7 9 1006.6 1006.5 0.0
30/06:30pm 21.3 19.3 12.7 58 4.9 SSW 15 20 8 11 1006.2 1006.1 0.0
30/06:00pm 21.0 19.7 13.7 63 4.2 SSW 13 17 7 9 1005.8 1005.7 0.0
30/05:30pm 19.6 15.1 13.8 69 3.3 SW 30 43 16 23 1006.2 1006.1 0.0
30/05:00pm 22.6 19.9 12.8 54 5.6 SSW 19 30 10 16 1005.9 1005.8 0.0
30/04:30pm 22.7 20.0 13.5 56 5.3 SSW 20 30 11 16 1005.9 1005.8 0.0
30/04:00pm 22.2 19.5 13.5 57 5.0 SSW 20 32 11 17 1005.9 1005.8 0.0
30/03:45pm 21.9 17.2 11.9 53 5.6 SW 28 46 15 25 1006.2 1006.1 0.0
30/03:30pm 22.6 18.7 12.0 51 6.0 WSW 24 37 13 20 1005.9 1005.8 0.0
30/03:00pm 22.4 17.6 11.8 51 6.0 SSW 28 41 15 22 1006.1 1006.0 0.0
30/02:30pm 23.6 20.7 12.9 51 6.2 SW 20 33 11 18 1006.0 1005.9 0.0
30/02:15pm 22.6 17.6 11.0 48 6.4 SW 28 48 15 26 1006.1 1006.0 0.0
30/02:00pm 22.4 18.4 11.8 51 6.0 SW 24 41 13 22 1006.2 1006.1 0.0
30/01:40pm 23.5 18.9 12.2 49 6.4 SW 28 46 15 25 1006.1 1006.0 0.0
30/01:30pm 23.0 18.1 11.4 48 6.5 SW 28 43 15 23 1006.3 1006.2 0.0
30/01:00pm 22.9 20.0 12.8 53 5.8 WSW 20 33 11 18 1006.7 1006.6 0.0
30/12:30pm 22.4 17.6 11.8 51 6.0 SW 28 41 15 22 1006.9 1006.8 0.0
30/12:00pm 20.9 18.2 11.8 56 5.1 WSW 17 28 9 15 1007.3 1007.2 0.0
30/11:30am 18.9 16.9 11.5 62 4.1 WSW 13 20 7 11 1007.6 1007.5 0.0
30/11:00am 17.7 16.1 11.7 68 3.3 WSW 11 19 6 10 1008.0 1007.9 0.0
30/10:30am 16.9 15.8 12.0 73 2.7 WSW 9 13 5 7 1008.3 1008.2 0.0
30/10:00am 15.9 15.1 12.8 82 1.7 W 9 11 5 6 1008.5 1008.4 0.0
30/09:30am 14.9 14.1 12.8 87 1.2 WNW 9 15 5 8 1008.6 1008.5 0.0
30/09:00am 14.1 13.2 12.5 90 0.9 W 9 13 5 7 1008.8 1008.7 0.8
30/08:30am 13.8 12.5 12.5 92 0.7 W 11 13 6 7 1009.0 1008.9 0.8
30/08:00am 13.5 12.5 12.2 92 0.7 W 9 15 5 8 1009.1 1009.0 0.8
30/07:30am 14.1 11.9 12.1 88 1.1 WSW 15 22 8 12 1009.0 1008.9 0.6
30/07:00am 15.4 12.6 10.0 70 2.8 SW 15 22 8 12 1008.8 1008.7 0.0
30/06:30am 14.8 12.7 9.6 71 2.7 WSW 11 17 6 9 1008.7 1008.6 0.0
30/06:00am 13.8 12.1 9.8 77 2.1 SW 9 11 5 6 1008.6 1008.5 0.0
30/05:30am 13.2 11.9 9.8 80 1.7 WSW 7 9 4 5 1008.7 1008.6 0.0
30/05:00am 13.4 11.5 9.1 75 2.2 SW 9 11 5 6 1008.7 1008.6 0.0
30/04:58am 13.4 11.5 9.1 75 2.2 SW 9 11 5 6 1008.7 1008.6 0.0
30/04:39am 13.6 11.7 8.9 73 2.4 WSW 9 13 5 7 1008.8 1008.7 0.0
30/04:30am 13.7 11.3 8.7 72 2.5 WSW 11 13 6 7 1008.9 1008.8 0.0
30/04:00am 13.7 11.3 8.7 72 2.5 WSW 11 15 6 8 1009.0 1008.9 0.0
30/03:30am 14.5 12.0 8.0 65 3.2 WSW 11 20 6 11 1009.2 1009.1 0.0
30/03:00am 14.5 12.0 8.2 66 3.2 WSW 11 17 6 9 1009.6 1009.5 0.0
30/02:30am 14.6 12.2 8.5 67 3.1 WSW 11 15 6 8 1010.0 1009.9 0.0
30/02:00am 14.9 11.7 8.6 66 3.2 SW 15 19 8 10 1010.3 1010.2 0.0
30/01:30am 15.0 12.2 8.7 66 3.2 WSW 13 17 7 9 1010.4 1010.3 0.0
30/01:00am 15.6 12.1 8.6 63 3.6 SW 17 26 9 14 1010.9 1010.8 0.0
30/12:30am 15.5 12.4 8.7 64 3.5 WSW 15 22 8 12 1011.2 1011.1 0.0
30/12:00am 14.8 12.6 9.2 69 2.9 WSW 11 19 6 10 1011.5 1011.4 0.0
 
Date/Time
EDT
Tmp

°C
App
Tmp
°C
Dew
Point
°C
Rel
Hum
%
Delta-T

°C
Wind Press
QNH
hPa
Press
MSL
hPa
Rain
since
9 am
mm
Dir
 
Spd
km/h
Gust
km/h
Spd
kts
Gust
kts
29/11:30pm 14.6 12.8 9.4 71 2.7 SW 9 13 5 7 1011.8 1011.7 0.0
29/11:00pm 15.2 13.0 9.3 68 3.0 SSW 11 17 6 9 1012.1 1012.0 0.0
29/10:30pm 16.1 12.3 9.8 66 3.3 SW 20 28 11 15 1012.2 1012.1 0.0
29/10:00pm 16.4 12.8 9.8 65 3.5 SSW 19 26 10 14 1012.6 1012.5 0.0
29/09:30pm 16.7 13.4 9.6 63 3.7 SW 17 30 9 16 1012.7 1012.6 0.0
29/09:00pm 16.9 12.7 9.8 63 3.7 SW 22 32 12 17 1012.4 1012.3 0.0
29/08:30pm 16.8 13.9 11.1 69 3.1 SSW 17 28 9 15 1012.5 1012.4 0.0
29/08:00pm 16.9 14.2 11.8 72 2.8 SSW 17 24 9 13 1012.4 1012.3 0.0

Latest Capital City Observations: Canberra | Sydney | Melbourne | Brisbane | Adelaide | Perth | Hobart | Darwin

Other Formats:

Comma delimited format used in spreadsheet applications
http://www.bom.gov.au/fwo/IDN60903/IDN60903.95937.axf

JavaScript Object Notation format (JSON) in row-major order
http://www.bom.gov.au/fwo/IDN60903/IDN60903.95937.json